sensor_id;sensor_type;location;lat;lon;timestamp;temperature;humidity
65544;HTU21D;52173;45.204;39.240;2022-07-12T00:22:14;20.99;89.39
65544;HTU21D;52173;45.204;39.240;2022-07-12T00:24:40;20.96;88.81
65544;HTU21D;52173;45.204;39.240;2022-07-12T00:27:07;20.90;88.35
65544;HTU21D;52173;45.204;39.240;2022-07-12T00:29:33;20.84;88.05
65544;HTU21D;52173;45.204;39.240;2022-07-12T00:31:59;20.75;87.86
65544;HTU21D;52173;45.204;39.240;2022-07-12T00:34:26;20.69;87.73
65544;HTU21D;52173;45.204;39.240;2022-07-12T00:36:52;20.64;87.64
65544;HTU21D;52173;45.204;39.240;2022-07-12T00:39:18;20.59;87.65
65544;HTU21D;52173;45.204;39.240;2022-07-12T00:41:48;20.55;87.67
65544;HTU21D;52173;45.204;39.240;2022-07-12T00:44:14;20.50;87.69
65544;HTU21D;52173;45.204;39.240;2022-07-12T00:46:40;20.46;87.65
65544;HTU21D;52173;45.204;39.240;2022-07-12T00:49:07;20.44;87.68
65544;HTU21D;52173;45.204;39.240;2022-07-12T00:51:33;20.40;87.75
65544;HTU21D;52173;45.204;39.240;2022-07-12T00:53:59;20.36;87.83
65544;HTU21D;52173;45.204;39.240;2022-07-12T00:56:26;20.33;87.96
65544;HTU21D;52173;45.204;39.240;2022-07-12T00:58:52;20.30;88.03
65544;HTU21D;52173;45.204;39.240;2022-07-12T01:01:18;20.29;88.15
65544;HTU21D;52173;45.204;39.240;2022-07-12T01:03:45;20.30;88.30
65544;HTU21D;52173;45.204;39.240;2022-07-12T01:06:11;20.31;88.50
65544;HTU21D;52173;45.204;39.240;2022-07-12T01:08:37;20.33;88.52
65544;HTU21D;52173;45.204;39.240;2022-07-12T01:11:04;20.33;88.62
65544;HTU21D;52173;45.204;39.240;2022-07-12T01:13:31;20.34;88.70
65544;HTU21D;52173;45.204;39.240;2022-07-12T01:15:57;20.34;88.79
65544;HTU21D;52173;45.204;39.240;2022-07-12T01:18:24;20.35;88.88
65544;HTU21D;52173;45.204;39.240;2022-07-12T01:20:53;20.35;88.95
65544;HTU21D;52173;45.204;39.240;2022-07-12T01:23:22;20.34;89.04
65544;HTU21D;52173;45.204;39.240;2022-07-12T01:25:48;20.33;89.16
65544;HTU21D;52173;45.204;39.240;2022-07-12T01:28:15;20.30;89.44
65544;HTU21D;52173;45.204;39.240;2022-07-12T01:30:41;20.26;89.32
65544;HTU21D;52173;45.204;39.240;2022-07-12T01:33:07;20.22;89.32
65544;HTU21D;52173;45.204;39.240;2022-07-12T01:35:34;20.20;89.44
65544;HTU21D;52173;45.204;39.240;2022-07-12T01:38:01;20.16;89.53
65544;HTU21D;52173;45.204;39.240;2022-07-12T01:40:28;20.13;89.63
65544;HTU21D;52173;45.204;39.240;2022-07-12T01:42:54;20.10;89.60
65544;HTU21D;52173;45.204;39.240;2022-07-12T01:45:20;20.07;89.66
65544;HTU21D;52173;45.204;39.240;2022-07-12T01:47:47;20.02;89.66
65544;HTU21D;52173;45.204;39.240;2022-07-12T01:50:15;20.00;89.66
65544;HTU21D;52173;45.204;39.240;2022-07-12T01:52:41;19.97;89.70
65544;HTU21D;52173;45.204;39.240;2022-07-12T01:55:09;19.95;89.80
65544;HTU21D;52173;45.204;39.240;2022-07-12T01:57:36;19.95;89.92
65544;HTU21D;52173;45.204;39.240;2022-07-12T02:00:05;19.95;90.04
65544;HTU21D;52173;45.204;39.240;2022-07-12T02:02:32;19.94;90.11
65544;HTU21D;52173;45.204;39.240;2022-07-12T02:05:02;19.96;90.16
65544;HTU21D;52173;45.204;39.240;2022-07-12T02:07:29;19.96;90.24
65544;HTU21D;52173;45.204;39.240;2022-07-12T02:09:55;19.96;90.30
65544;HTU21D;52173;45.204;39.240;2022-07-12T02:12:22;19.98;90.37
65544;HTU21D;52173;45.204;39.240;2022-07-12T02:14:48;20.00;90.41
65544;HTU21D;52173;45.204;39.240;2022-07-12T02:17:15;20.02;90.44
65544;HTU21D;52173;45.204;39.240;2022-07-12T02:19:41;20.02;90.43
65544;HTU21D;52173;45.204;39.240;2022-07-12T02:22:07;20.04;90.42
65544;HTU21D;52173;45.204;39.240;2022-07-12T02:24:33;20.06;90.44
65544;HTU21D;52173;45.204;39.240;2022-07-12T02:26:59;20.10;90.47
65544;HTU21D;52173;45.204;39.240;2022-07-12T02:29:26;20.14;90.50
65544;HTU21D;52173;45.204;39.240;2022-07-12T02:31:52;20.18;90.50
65544;HTU21D;52173;45.204;39.240;2022-07-12T02:34:18;20.21;90.53
65544;HTU21D;52173;45.204;39.240;2022-07-12T02:36:44;20.25;90.54
65544;HTU21D;52173;45.204;39.240;2022-07-12T02:39:10;20.31;90.60
65544;HTU21D;52173;45.204;39.240;2022-07-12T02:41:37;20.37;90.57
65544;HTU21D;52173;45.204;39.240;2022-07-12T02:44:03;20.43;90.53
65544;HTU21D;52173;45.204;39.240;2022-07-12T02:46:29;20.51;90.56
65544;HTU21D;52173;45.204;39.240;2022-07-12T02:48:56;20.61;90.62
65544;HTU21D;52173;45.204;39.240;2022-07-12T02:51:23;20.75;90.92
65544;HTU21D;52173;45.204;39.240;2022-07-12T02:53:49;20.98;90.92
65544;HTU21D;52173;45.204;39.240;2022-07-12T02:56:15;21.34;90.90
65544;HTU21D;52173;45.204;39.240;2022-07-12T02:58:41;21.76;91.15
65544;HTU21D;52173;45.204;39.240;2022-07-12T03:01:08;22.13;90.36
65544;HTU21D;52173;45.204;39.240;2022-07-12T03:03:34;22.49;89.78
65544;HTU21D;52173;45.204;39.240;2022-07-12T03:06:00;22.82;88.98
65544;HTU21D;52173;45.204;39.240;2022-07-12T03:08:26;23.21;88.25
65544;HTU21D;52173;45.204;39.240;2022-07-12T03:10:53;23.59;87.34
65544;HTU21D;52173;45.204;39.240;2022-07-12T03:13:19;23.99;86.28
65544;HTU21D;52173;45.204;39.240;2022-07-12T03:15:45;24.39;85.12
65544;HTU21D;52173;45.204;39.240;2022-07-12T03:18:11;24.66;84.11
65544;HTU21D;52173;45.204;39.240;2022-07-12T03:20:38;24.97;83.16
65544;HTU21D;52173;45.204;39.240;2022-07-12T03:23:05;25.22;82.42
65544;HTU21D;52173;45.204;39.240;2022-07-12T03:25:31;25.53;81.55
65544;HTU21D;52173;45.204;39.240;2022-07-12T03:27:57;25.91;80.48
65544;HTU21D;52173;45.204;39.240;2022-07-12T03:30:23;26.26;79.42
65544;HTU21D;52173;45.204;39.240;2022-07-12T03:32:50;26.61;78.45
65544;HTU21D;52173;45.204;39.240;2022-07-12T03:35:16;26.94;77.33
65544;HTU21D;52173;45.204;39.240;2022-07-12T03:37:47;0.00;0.00
65544;HTU21D;52173;45.204;39.240;2022-07-12T03:40:15;0.00;0.00
65544;HTU21D;52173;45.204;39.240;2022-07-12T03:42:42;0.00;0.00
65544;HTU21D;52173;45.204;39.240;2022-07-12T03:45:09;0.00;0.00
65544;HTU21D;52173;45.204;39.240;2022-07-12T03:47:36;0.00;0.00
65544;HTU21D;52173;45.204;39.240;2022-07-12T03:50:05;0.00;0.00
65544;HTU21D;52173;45.204;39.240;2022-07-12T03:52:34;0.00;0.00
65544;HTU21D;52173;45.204;39.240;2022-07-12T03:55:01;0.00;0.00
65544;HTU21D;52173;45.204;39.240;2022-07-12T03:57:30;0.00;0.00
65544;HTU21D;52173;45.204;39.240;2022-07-12T03:59:56;0.00;0.00
65544;HTU21D;52173;45.204;39.240;2022-07-12T04:02:23;0.00;0.00
65544;HTU21D;52173;45.204;39.240;2022-07-12T04:04:50;0.00;0.00
65544;HTU21D;52173;45.204;39.240;2022-07-12T04:07:17;0.00;0.00
65544;HTU21D;52173;45.204;39.240;2022-07-12T04:09:44;0.00;0.00
65544;HTU21D;52173;45.204;39.240;2022-07-12T04:12:10;0.00;0.00
65544;HTU21D;52173;45.204;39.240;2022-07-12T04:14:37;0.00;0.00
65544;HTU21D;52173;45.204;39.240;2022-07-12T04:17:03;0.00;0.00
65544;HTU21D;52173;45.204;39.240;2022-07-12T04:19:32;0.00;0.00
65544;HTU21D;52173;45.204;39.240;2022-07-12T04:21:58;0.00;0.00
65544;HTU21D;52173;45.204;39.240;2022-07-12T04:24:25;0.00;0.00
65544;HTU21D;52173;45.204;39.240;2022-07-12T04:26:52;0.00;56.81
65544;HTU21D;52173;45.204;39.240;2022-07-12T04:29:19;32.83;56.03
65544;HTU21D;52173;45.204;39.240;2022-07-12T04:31:45;33.08;54.60
65544;HTU21D;52173;45.204;39.240;2022-07-12T04:34:11;33.28;53.21
65544;HTU21D;52173;45.204;39.240;2022-07-12T04:36:37;33.41;52.46
65544;HTU21D;52173;45.204;39.240;2022-07-12T04:39:04;33.53;52.14
65544;HTU21D;52173;45.204;39.240;2022-07-12T04:41:30;33.77;51.75
65544;HTU21D;52173;45.204;39.240;2022-07-12T04:43:56;34.04;51.22
65544;HTU21D;52173;45.204;39.240;2022-07-12T04:46:22;34.22;50.62
65544;HTU21D;52173;45.204;39.240;2022-07-12T04:48:48;34.38;50.04
65544;HTU21D;52173;45.204;39.240;2022-07-12T04:51:15;34.48;49.59
65544;HTU21D;52173;45.204;39.240;2022-07-12T04:53:42;34.69;49.04
65544;HTU21D;52173;45.204;39.240;2022-07-12T04:56:08;34.95;48.06
65544;HTU21D;52173;45.204;39.240;2022-07-12T04:58:35;0.00;0.00
65544;HTU21D;52173;45.204;39.240;2022-07-12T05:01:01;0.00;0.00
65544;HTU21D;52173;45.204;39.240;2022-07-12T05:03:27;0.00;0.00
65544;HTU21D;52173;45.204;39.240;2022-07-12T05:05:54;36.49;44.29
65544;HTU21D;52173;45.204;39.240;2022-07-12T05:08:21;36.75;43.53
65544;HTU21D;52173;45.204;39.240;2022-07-12T05:10:47;37.06;43.11
65544;HTU21D;52173;45.204;39.240;2022-07-12T05:13:14;37.32;42.07
65544;HTU21D;52173;45.204;39.240;2022-07-12T05:15:40;37.62;41.18
65544;HTU21D;52173;45.204;39.240;2022-07-12T05:18:07;37.79;40.21
65544;HTU21D;52173;45.204;39.240;2022-07-12T05:20:33;37.92;40.11
65544;HTU21D;52173;45.204;39.240;2022-07-12T05:22:59;38.04;39.61
65544;HTU21D;52173;45.204;39.240;2022-07-12T05:25:25;38.17;39.51
65544;HTU21D;52173;45.204;39.240;2022-07-12T05:27:52;38.24;39.06
65544;HTU21D;52173;45.204;39.240;2022-07-12T05:30:18;38.26;38.66
65544;HTU21D;52173;45.204;39.240;2022-07-12T05:32:44;38.35;38.58
65544;HTU21D;52173;45.204;39.240;2022-07-12T05:35:10;38.52;38.12
65544;HTU21D;52173;45.204;39.240;2022-07-12T05:37:36;38.66;37.64
65544;HTU21D;52173;45.204;39.240;2022-07-12T05:40:03;38.71;37.01
65544;HTU21D;52173;45.204;39.240;2022-07-12T05:42:29;38.80;36.85
65544;HTU21D;52173;45.204;39.240;2022-07-12T05:44:55;38.92;36.26
65544;HTU21D;52173;45.204;39.240;2022-07-12T05:47:22;39.03;35.73
65544;HTU21D;52173;45.204;39.240;2022-07-12T05:49:48;39.07;35.94
65544;HTU21D;52173;45.204;39.240;2022-07-12T05:52:14;39.12;35.95
65544;HTU21D;52173;45.204;39.240;2022-07-12T05:54:59;39.35;36.07
65544;HTU21D;52173;45.204;39.240;2022-07-12T05:57:25;39.70;35.59
65544;HTU21D;52173;45.204;39.240;2022-07-12T05:59:51;39.95;35.11
65544;HTU21D;52173;45.204;39.240;2022-07-12T06:02:17;40.17;34.99
65544;HTU21D;52173;45.204;39.240;2022-07-12T06:04:44;40.37;34.79
65544;HTU21D;52173;45.204;39.240;2022-07-12T06:07:10;40.44;33.99
65544;HTU21D;52173;45.204;39.240;2022-07-12T06:09:36;40.55;33.77
65544;HTU21D;52173;45.204;39.240;2022-07-12T06:12:02;40.75;33.87
65544;HTU21D;52173;45.204;39.240;2022-07-12T06:14:29;40.81;33.63
65544;HTU21D;52173;45.204;39.240;2022-07-12T06:16:55;40.93;33.25
65544;HTU21D;52173;45.204;39.240;2022-07-12T06:19:21;40.99;32.99
65544;HTU21D;52173;45.204;39.240;2022-07-12T06:21:49;41.07;33.61
65544;HTU21D;52173;45.204;39.240;2022-07-12T06:24:15;41.27;33.38
65544;HTU21D;52173;45.204;39.240;2022-07-12T06:26:42;0.00;0.00
65544;HTU21D;52173;45.204;39.240;2022-07-12T06:29:08;0.00;0.00
65544;HTU21D;52173;45.204;39.240;2022-07-12T06:31:34;42.04;31.90
65544;HTU21D;52173;45.204;39.240;2022-07-12T06:34:00;42.25;31.44
65544;HTU21D;52173;45.204;39.240;2022-07-12T06:36:27;42.10;30.92
65544;HTU21D;52173;45.204;39.240;2022-07-12T06:38:53;42.15;30.67
65544;HTU21D;52173;45.204;39.240;2022-07-12T06:41:19;42.16;30.91
65544;HTU21D;52173;45.204;39.240;2022-07-12T06:43:45;42.35;30.98
65544;HTU21D;52173;45.204;39.240;2022-07-12T06:46:12;42.65;30.61
65544;HTU21D;52173;45.204;39.240;2022-07-12T06:48:38;42.97;30.16
65544;HTU21D;52173;45.204;39.240;2022-07-12T06:51:04;43.20;29.13
65544;HTU21D;52173;45.204;39.240;2022-07-12T06:53:31;43.18;29.03
65544;HTU21D;52173;45.204;39.240;2022-07-12T06:55:57;43.44;28.69
65544;HTU21D;52173;45.204;39.240;2022-07-12T06:58:23;43.82;27.83
65544;HTU21D;52173;45.204;39.240;2022-07-12T07:00:49;44.02;27.79
65544;HTU21D;52173;45.204;39.240;2022-07-12T07:03:15;44.10;27.14
65544;HTU21D;52173;45.204;39.240;2022-07-12T07:05:41;43.53;27.62
65544;HTU21D;52173;45.204;39.240;2022-07-12T07:08:08;43.22;28.84
65544;HTU21D;52173;45.204;39.240;2022-07-12T07:10:34;43.47;28.26
65544;HTU21D;52173;45.204;39.240;2022-07-12T07:13:00;43.65;28.03
65544;HTU21D;52173;45.204;39.240;2022-07-12T07:15:26;43.87;27.75
65544;HTU21D;52173;45.204;39.240;2022-07-12T07:17:53;43.46;27.76
65544;HTU21D;52173;45.204;39.240;2022-07-12T07:20:19;41.76;29.10
65544;HTU21D;52173;45.204;39.240;2022-07-12T07:22:45;39.99;31.12
65544;HTU21D;52173;45.204;39.240;2022-07-12T07:25:12;38.43;33.96
65544;HTU21D;52173;45.204;39.240;2022-07-12T07:27:38;37.36;35.77
65544;HTU21D;52173;45.204;39.240;2022-07-12T07:30:05;37.40;36.82
65544;HTU21D;52173;45.204;39.240;2022-07-12T07:32:50;37.99;35.91
65544;HTU21D;52173;45.204;39.240;2022-07-12T07:35:16;37.43;36.27
65544;HTU21D;52173;45.204;39.240;2022-07-12T07:37:42;36.59;37.37
65544;HTU21D;52173;45.204;39.240;2022-07-12T07:40:09;35.78;38.38
65544;HTU21D;52173;45.204;39.240;2022-07-12T07:42:35;35.14;40.13
65544;HTU21D;52173;45.204;39.240;2022-07-12T07:45:02;35.41;40.29
65544;HTU21D;52173;45.204;39.240;2022-07-12T07:47:41;37.02;38.67
65544;HTU21D;52173;45.204;39.240;2022-07-12T07:50:08;38.85;36.34
65544;HTU21D;52173;45.204;39.240;2022-07-12T07:52:34;40.30;34.11
65544;HTU21D;52173;45.204;39.240;2022-07-12T07:55:00;41.43;32.04
65544;HTU21D;52173;45.204;39.240;2022-07-12T07:57:26;42.23;30.62
65544;HTU21D;52173;45.204;39.240;2022-07-12T07:59:53;42.47;29.41
65544;HTU21D;52173;45.204;39.240;2022-07-12T08:02:19;42.51;29.72
65544;HTU21D;52173;45.204;39.240;2022-07-12T08:04:45;42.57;29.90
65544;HTU21D;52173;45.204;39.240;2022-07-12T08:07:11;42.69;29.53
65544;HTU21D;52173;45.204;39.240;2022-07-12T08:09:37;42.63;29.68
65544;HTU21D;52173;45.204;39.240;2022-07-12T08:12:04;43.03;29.77
65544;HTU21D;52173;45.204;39.240;2022-07-12T08:14:30;43.85;29.16
65544;HTU21D;52173;45.204;39.240;2022-07-12T08:16:56;0.00;0.00
65544;HTU21D;52173;45.204;39.240;2022-07-12T08:19:22;0.00;0.00
65544;HTU21D;52173;45.204;39.240;2022-07-12T08:21:49;0.00;0.00
65544;HTU21D;52173;45.204;39.240;2022-07-12T08:24:15;0.00;0.00
65544;HTU21D;52173;45.204;39.240;2022-07-12T08:26:41;0.00;0.00
65544;HTU21D;52173;45.204;39.240;2022-07-12T08:29:08;0.00;0.00
65544;HTU21D;52173;45.204;39.240;2022-07-12T08:31:34;0.00;0.00
65544;HTU21D;52173;45.204;39.240;2022-07-12T08:34:00;0.00;0.00
65544;HTU21D;52173;45.204;39.240;2022-07-12T08:36:27;0.00;0.00
65544;HTU21D;52173;45.204;39.240;2022-07-12T08:38:53;0.00;0.00
65544;HTU21D;52173;45.204;39.240;2022-07-12T08:41:19;0.00;0.00
65544;HTU21D;52173;45.204;39.240;2022-07-12T08:43:45;45.98;24.05
65544;HTU21D;52173;45.204;39.240;2022-07-12T08:46:13;45.92;23.62
65544;HTU21D;52173;45.204;39.240;2022-07-12T08:48:41;45.48;23.79
65544;HTU21D;52173;45.204;39.240;2022-07-12T08:51:09;45.39;23.99
65544;HTU21D;52173;45.204;39.240;2022-07-12T08:53:36;45.04;24.08
65544;HTU21D;52173;45.204;39.240;2022-07-12T08:56:03;43.87;25.34
65544;HTU21D;52173;45.204;39.240;2022-07-12T08:58:30;42.44;27.05
65544;HTU21D;52173;45.204;39.240;2022-07-12T09:00:57;42.25;28.20
65544;HTU21D;52173;45.204;39.240;2022-07-12T09:03:23;42.11;28.59
65544;HTU21D;52173;45.204;39.240;2022-07-12T09:05:55;41.27;29.48
65544;HTU21D;52173;45.204;39.240;2022-07-12T09:08:30;40.41;29.93
65544;HTU21D;52173;45.204;39.240;2022-07-12T09:11:00;39.88;31.63
65544;HTU21D;52173;45.204;39.240;2022-07-12T09:13:52;39.26;32.28
65544;HTU21D;52173;45.204;39.240;2022-07-12T09:16:20;38.67;32.12
65544;HTU21D;52173;45.204;39.240;2022-07-12T09:18:48;38.15;32.47
65544;HTU21D;52173;45.204;39.240;2022-07-12T09:21:24;37.59;33.17
65544;HTU21D;52173;45.204;39.240;2022-07-12T09:23:55;37.08;33.97
65544;HTU21D;52173;45.204;39.240;2022-07-12T09:26:28;36.76;34.76
65544;HTU21D;52173;45.204;39.240;2022-07-12T09:29:08;37.12;34.38
65544;HTU21D;52173;45.204;39.240;2022-07-12T09:31:47;37.85;33.79
65544;HTU21D;52173;45.204;39.240;2022-07-12T09:34:40;39.27;33.22
65544;HTU21D;52173;45.204;39.240;2022-07-12T09:37:25;41.04;30.38
65544;HTU21D;52173;45.204;39.240;2022-07-12T09:39:53;42.02;29.61
65544;HTU21D;52173;45.204;39.240;2022-07-12T09:42:20;42.63;27.97
65544;HTU21D;52173;45.204;39.240;2022-07-12T09:44:48;42.40;28.34
65544;HTU21D;52173;45.204;39.240;2022-07-12T09:47:15;42.46;28.74
65544;HTU21D;52173;45.204;39.240;2022-07-12T09:49:45;42.39;28.19
65544;HTU21D;52173;45.204;39.240;2022-07-12T09:52:15;42.10;28.11
65544;HTU21D;52173;45.204;39.240;2022-07-12T09:54:46;41.71;28.40
65544;HTU21D;52173;45.204;39.240;2022-07-12T09:57:30;41.30;28.61
65544;HTU21D;52173;45.204;39.240;2022-07-12T09:59:59;41.13;29.26
65544;HTU21D;52173;45.204;39.240;2022-07-12T10:02:25;40.70;29.85
65544;HTU21D;52173;45.204;39.240;2022-07-12T10:04:52;39.79;29.96
65544;HTU21D;52173;45.204;39.240;2022-07-12T10:07:19;38.45;31.92
65544;HTU21D;52173;45.204;39.240;2022-07-12T10:09:50;37.32;34.50
65544;HTU21D;52173;45.204;39.240;2022-07-12T10:12:19;36.66;35.82
65544;HTU21D;52173;45.204;39.240;2022-07-12T10:14:46;36.33;36.79
65544;HTU21D;52173;45.204;39.240;2022-07-12T10:17:21;35.99;37.18
65544;HTU21D;52173;45.204;39.240;2022-07-12T10:19:48;35.58;37.37
65544;HTU21D;52173;45.204;39.240;2022-07-12T10:22:21;35.15;37.90
65544;HTU21D;52173;45.204;39.240;2022-07-12T10:24:52;34.81;38.07
65544;HTU21D;52173;45.204;39.240;2022-07-12T10:29:47;34.32;40.04
65544;HTU21D;52173;45.204;39.240;2022-07-12T10:32:23;34.22;40.97
65544;HTU21D;52173;45.204;39.240;2022-07-12T10:35:11;34.06;41.74
65544;HTU21D;52173;45.204;39.240;2022-07-12T10:37:37;33.88;41.92
65544;HTU21D;52173;45.204;39.240;2022-07-12T10:40:17;33.73;41.67
65544;HTU21D;52173;45.204;39.240;2022-07-12T10:45:34;33.50;41.96
65544;HTU21D;52173;45.204;39.240;2022-07-12T10:48:02;33.31;42.09
65544;HTU21D;52173;45.204;39.240;2022-07-12T10:53:27;33.19;42.19
65544;HTU21D;52173;45.204;39.240;2022-07-12T10:58:38;33.08;42.23
65544;HTU21D;52173;45.204;39.240;2022-07-12T11:01:13;32.99;42.80
65544;HTU21D;52173;45.204;39.240;2022-07-12T11:03:48;32.94;42.44
65544;HTU21D;52173;45.204;39.240;2022-07-12T11:06:23;32.93;42.55
65544;HTU21D;52173;45.204;39.240;2022-07-12T11:08:53;33.08;42.79
65544;HTU21D;52173;45.204;39.240;2022-07-12T11:11:20;33.26;42.48
65544;HTU21D;52173;45.204;39.240;2022-07-12T11:13:48;33.44;42.07
65544;HTU21D;52173;45.204;39.240;2022-07-12T11:16:14;33.61;41.70
65544;HTU21D;52173;45.204;39.240;2022-07-12T11:18:40;33.68;41.13
65544;HTU21D;52173;45.204;39.240;2022-07-12T11:21:07;33.71;41.10
65544;HTU21D;52173;45.204;39.240;2022-07-12T11:23:33;33.72;42.44
65544;HTU21D;52173;45.204;39.240;2022-07-12T11:26:02;33.66;42.77
65544;HTU21D;52173;45.204;39.240;2022-07-12T11:28:30;33.56;42.94
65544;HTU21D;52173;45.204;39.240;2022-07-12T11:31:17;33.34;42.95
65544;HTU21D;52173;45.204;39.240;2022-07-12T11:33:46;33.14;42.90
65544;HTU21D;52173;45.204;39.240;2022-07-12T11:36:13;32.98;43.52
65544;HTU21D;52173;45.204;39.240;2022-07-12T11:38:42;32.92;44.03
65544;HTU21D;52173;45.204;39.240;2022-07-12T11:41:10;32.94;43.55
65544;HTU21D;52173;45.204;39.240;2022-07-12T11:43:37;33.06;44.35
65544;HTU21D;52173;45.204;39.240;2022-07-12T11:46:05;33.18;44.19
65544;HTU21D;52173;45.204;39.240;2022-07-12T11:48:31;33.23;43.35
65544;HTU21D;52173;45.204;39.240;2022-07-12T11:51:03;33.26;43.19
65544;HTU21D;52173;45.204;39.240;2022-07-12T11:53:31;33.33;43.32
65544;HTU21D;52173;45.204;39.240;2022-07-12T11:55:58;33.41;43.42
65544;HTU21D;52173;45.204;39.240;2022-07-12T11:58:26;33.48;43.23
65544;HTU21D;52173;45.204;39.240;2022-07-12T12:00:54;33.56;42.52
65544;HTU21D;52173;45.204;39.240;2022-07-12T12:03:21;33.64;41.67
65544;HTU21D;52173;45.204;39.240;2022-07-12T12:05:50;33.75;40.86
65544;HTU21D;52173;45.204;39.240;2022-07-12T12:08:17;33.73;40.80
65544;HTU21D;52173;45.204;39.240;2022-07-12T12:10:54;33.59;40.98
65544;HTU21D;52173;45.204;39.240;2022-07-12T12:13:22;33.40;41.26
65544;HTU21D;52173;45.204;39.240;2022-07-12T12:15:50;33.20;41.59
65544;HTU21D;52173;45.204;39.240;2022-07-12T12:21:05;33.16;42.62
65544;HTU21D;52173;45.204;39.240;2022-07-12T12:23:33;33.19;42.62
65544;HTU21D;52173;45.204;39.240;2022-07-12T12:26:16;33.22;42.33
65544;HTU21D;52173;45.204;39.240;2022-07-12T12:28:50;33.23;42.34
65544;HTU21D;52173;45.204;39.240;2022-07-12T12:31:21;33.26;42.11
65544;HTU21D;52173;45.204;39.240;2022-07-12T12:33:49;33.31;42.10
65544;HTU21D;52173;45.204;39.240;2022-07-12T12:36:21;33.32;42.41
65544;HTU21D;52173;45.204;39.240;2022-07-12T12:39:00;33.37;42.89
65544;HTU21D;52173;45.204;39.240;2022-07-12T12:41:28;33.43;42.60
65544;HTU21D;52173;45.204;39.240;2022-07-12T12:44:03;33.44;42.48
65544;HTU21D;52173;45.204;39.240;2022-07-12T12:46:54;33.43;42.16
65544;HTU21D;52173;45.204;39.240;2022-07-12T12:49:50;33.44;42.57
65544;HTU21D;52173;45.204;39.240;2022-07-12T12:52:17;33.51;43.36
65544;HTU21D;52173;45.204;39.240;2022-07-12T12:54:43;33.57;42.26
65544;HTU21D;52173;45.204;39.240;2022-07-12T12:57:11;33.56;41.83
65544;HTU21D;52173;45.204;39.240;2022-07-12T12:59:38;33.50;41.69
65544;HTU21D;52173;45.204;39.240;2022-07-12T13:02:05;33.51;41.60
65544;HTU21D;52173;45.204;39.240;2022-07-12T13:04:33;33.50;41.33
65544;HTU21D;52173;45.204;39.240;2022-07-12T13:07:01;33.43;40.93
65544;HTU21D;52173;45.204;39.240;2022-07-12T13:09:28;33.30;42.16
65544;HTU21D;52173;45.204;39.240;2022-07-12T13:11:55;33.22;42.75
65544;HTU21D;52173;45.204;39.240;2022-07-12T13:14:22;33.14;42.64
65544;HTU21D;52173;45.204;39.240;2022-07-12T13:16:49;33.08;42.71
65544;HTU21D;52173;45.204;39.240;2022-07-12T13:19:16;33.02;42.55
65544;HTU21D;52173;45.204;39.240;2022-07-12T13:21:42;32.96;42.06
65544;HTU21D;52173;45.204;39.240;2022-07-12T13:24:08;32.87;41.58
65544;HTU21D;52173;45.204;39.240;2022-07-12T13:26:36;32.85;42.13
65544;HTU21D;52173;45.204;39.240;2022-07-12T13:29:03;32.87;42.52
65544;HTU21D;52173;45.204;39.240;2022-07-12T13:31:29;32.93;42.06
65544;HTU21D;52173;45.204;39.240;2022-07-12T13:33:55;33.03;41.84
65544;HTU21D;52173;45.204;39.240;2022-07-12T13:36:22;33.14;41.09
65544;HTU21D;52173;45.204;39.240;2022-07-12T13:38:49;33.11;40.83
65544;HTU21D;52173;45.204;39.240;2022-07-12T13:41:15;32.99;40.48
65544;HTU21D;52173;45.204;39.240;2022-07-12T13:43:41;32.83;40.71
65544;HTU21D;52173;45.204;39.240;2022-07-12T13:46:07;32.77;41.48
65544;HTU21D;52173;45.204;39.240;2022-07-12T13:48:33;32.74;40.99
65544;HTU21D;52173;45.204;39.240;2022-07-12T13:51:00;32.72;41.04
65544;HTU21D;52173;45.204;39.240;2022-07-12T13:53:26;32.72;41.01
65544;HTU21D;52173;45.204;39.240;2022-07-12T13:55:52;32.71;40.69
65544;HTU21D;52173;45.204;39.240;2022-07-12T13:58:18;32.71;40.88
65544;HTU21D;52173;45.204;39.240;2022-07-12T14:00:44;32.70;40.80
65544;HTU21D;52173;45.204;39.240;2022-07-12T14:03:10;32.66;40.86
65544;HTU21D;52173;45.204;39.240;2022-07-12T14:05:37;32.60;40.39
65544;HTU21D;52173;45.204;39.240;2022-07-12T14:08:03;32.49;40.94
65544;HTU21D;52173;45.204;39.240;2022-07-12T14:10:29;32.42;41.20
65544;HTU21D;52173;45.204;39.240;2022-07-12T14:12:57;32.37;41.46
65544;HTU21D;52173;45.204;39.240;2022-07-12T14:15:23;32.29;41.54
65544;HTU21D;52173;45.204;39.240;2022-07-12T14:18:06;32.15;42.13
65544;HTU21D;52173;45.204;39.240;2022-07-12T14:20:34;32.03;41.49
65544;HTU21D;52173;45.204;39.240;2022-07-12T14:23:03;31.88;41.94
65544;HTU21D;52173;45.204;39.240;2022-07-12T14:25:32;31.75;42.12
65544;HTU21D;52173;45.204;39.240;2022-07-12T14:27:58;31.66;42.43
65544;HTU21D;52173;45.204;39.240;2022-07-12T14:30:24;31.61;42.52
65544;HTU21D;52173;45.204;39.240;2022-07-12T14:32:51;31.57;43.19
65544;HTU21D;52173;45.204;39.240;2022-07-12T14:35:17;31.56;43.29
65544;HTU21D;52173;45.204;39.240;2022-07-12T14:37:43;31.58;43.39
65544;HTU21D;52173;45.204;39.240;2022-07-12T14:40:09;31.63;42.81
65544;HTU21D;52173;45.204;39.240;2022-07-12T14:42:36;31.64;42.89
65544;HTU21D;52173;45.204;39.240;2022-07-12T14:45:03;31.63;42.92
65544;HTU21D;52173;45.204;39.240;2022-07-12T14:47:29;31.60;42.52
65544;HTU21D;52173;45.204;39.240;2022-07-12T14:49:56;31.58;42.74
65544;HTU21D;52173;45.204;39.240;2022-07-12T14:52:22;31.54;43.03
65544;HTU21D;52173;45.204;39.240;2022-07-12T14:54:48;31.53;42.83
65544;HTU21D;52173;45.204;39.240;2022-07-12T14:57:17;31.51;42.39
65544;HTU21D;52173;45.204;39.240;2022-07-12T14:59:43;31.50;42.35
65544;HTU21D;52173;45.204;39.240;2022-07-12T15:02:09;31.52;42.78
65544;HTU21D;52173;45.204;39.240;2022-07-12T15:04:36;31.55;42.81
65544;HTU21D;52173;45.204;39.240;2022-07-12T15:07:02;31.56;42.92
65544;HTU21D;52173;45.204;39.240;2022-07-12T15:09:28;31.53;42.58
65544;HTU21D;52173;45.204;39.240;2022-07-12T15:11:54;31.51;42.80
65544;HTU21D;52173;45.204;39.240;2022-07-12T15:14:22;31.49;42.92
65544;HTU21D;52173;45.204;39.240;2022-07-12T15:16:49;31.46;42.65
65544;HTU21D;52173;45.204;39.240;2022-07-12T15:19:15;31.43;42.65
65544;HTU21D;52173;45.204;39.240;2022-07-12T15:21:41;31.40;42.90
65544;HTU21D;52173;45.204;39.240;2022-07-12T15:24:08;31.40;43.17
65544;HTU21D;52173;45.204;39.240;2022-07-12T15:26:34;31.40;43.14
65544;HTU21D;52173;45.204;39.240;2022-07-12T15:29:02;31.40;43.71
65544;HTU21D;52173;45.204;39.240;2022-07-12T15:31:30;31.39;43.78
65544;HTU21D;52173;45.204;39.240;2022-07-12T15:33:57;31.33;44.05
65544;HTU21D;52173;45.204;39.240;2022-07-12T15:36:23;31.27;44.29
65544;HTU21D;52173;45.204;39.240;2022-07-12T15:38:49;31.22;44.49
65544;HTU21D;52173;45.204;39.240;2022-07-12T15:41:16;31.15;44.87
65544;HTU21D;52173;45.204;39.240;2022-07-12T15:43:42;31.12;44.70